sensor_id;sensor_type;location;lat;lon;timestamp;temperature;humidity
4584;DHT22;2304;47.606;12.186;2023-04-03T00:04:37;5.70;73.80
4584;DHT22;2304;47.606;12.186;2023-04-03T00:09:40;5.80;74.30
4584;DHT22;2304;47.606;12.186;2023-04-03T00:14:42;5.90;74.20
4584;DHT22;2304;47.606;12.186;2023-04-03T00:19:45;5.90;73.80
4584;DHT22;2304;47.606;12.186;2023-04-03T00:24:47;5.90;73.30
4584;DHT22;2304;47.606;12.186;2023-04-03T00:29:48;6.20;73.20
4584;DHT22;2304;47.606;12.186;2023-04-03T00:34:52;6.20;73.20
4584;DHT22;2304;47.606;12.186;2023-04-03T00:39:53;5.90;72.90
4584;DHT22;2304;47.606;12.186;2023-04-03T00:45:25;5.90;72.90
4584;DHT22;2304;47.606;12.186;2023-04-03T00:50:29;5.90;73.40
4584;DHT22;2304;47.606;12.186;2023-04-03T00:55:31;5.90;73.30
4584;DHT22;2304;47.606;12.186;2023-04-03T01:00:34;5.80;73.40
4584;DHT22;2304;47.606;12.186;2023-04-03T01:05:39;5.80;73.40
4584;DHT22;2304;47.606;12.186;2023-04-03T01:10:41;5.70;73.70
4584;DHT22;2304;47.606;12.186;2023-04-03T01:15:43;5.70;73.50
4584;DHT22;2304;47.606;12.186;2023-04-03T01:21:09;5.70;74.00
4584;DHT22;2304;47.606;12.186;2023-04-03T01:26:12;5.60;73.80
4584;DHT22;2304;47.606;12.186;2023-04-03T01:31:19;5.70;74.20
4584;DHT22;2304;47.606;12.186;2023-04-03T01:36:26;5.70;74.10
4584;DHT22;2304;47.606;12.186;2023-04-03T01:41:28;5.80;74.10
4584;DHT22;2304;47.606;12.186;2023-04-03T01:46:30;5.70;73.80
4584;DHT22;2304;47.606;12.186;2023-04-03T01:51:34;5.70;73.70
4584;DHT22;2304;47.606;12.186;2023-04-03T01:56:35;5.70;74.10
4584;DHT22;2304;47.606;12.186;2023-04-03T02:01:38;5.70;74.00
4584;DHT22;2304;47.606;12.186;2023-04-03T02:06:42;6.00;73.50
4584;DHT22;2304;47.606;12.186;2023-04-03T02:11:43;5.70;73.40
4584;DHT22;2304;47.606;12.186;2023-04-03T02:16:45;5.90;74.00
4584;DHT22;2304;47.606;12.186;2023-04-03T02:21:48;5.80;73.60
4584;DHT22;2304;47.606;12.186;2023-04-03T02:26:50;5.90;73.70
4584;DHT22;2304;47.606;12.186;2023-04-03T02:31:52;5.80;72.50
4584;DHT22;2304;47.606;12.186;2023-04-03T02:36:55;5.90;72.90
4584;DHT22;2304;47.606;12.186;2023-04-03T02:41:57;5.90;72.60
4584;DHT22;2304;47.606;12.186;2023-04-03T02:46:59;5.80;71.70
4584;DHT22;2304;47.606;12.186;2023-04-03T02:52:02;5.90;72.30
4584;DHT22;2304;47.606;12.186;2023-04-03T02:57:04;5.90;71.90
4584;DHT22;2304;47.606;12.186;2023-04-03T03:02:05;5.90;71.60
4584;DHT22;2304;47.606;12.186;2023-04-03T03:07:09;5.90;72.20
4584;DHT22;2304;47.606;12.186;2023-04-03T03:12:11;5.90;71.70
4584;DHT22;2304;47.606;12.186;2023-04-03T03:17:12;5.90;71.70
4584;DHT22;2304;47.606;12.186;2023-04-03T03:22:16;5.90;71.30
4584;DHT22;2304;47.606;12.186;2023-04-03T03:27:18;5.90;71.20
4584;DHT22;2304;47.606;12.186;2023-04-03T03:32:20;5.90;70.80
4584;DHT22;2304;47.606;12.186;2023-04-03T03:37:23;5.90;71.20
4584;DHT22;2304;47.606;12.186;2023-04-03T03:42:25;5.90;71.10
4584;DHT22;2304;47.606;12.186;2023-04-03T03:47:27;5.80;71.10
4584;DHT22;2304;47.606;12.186;2023-04-03T03:52:30;5.90;70.80
4584;DHT22;2304;47.606;12.186;2023-04-03T03:57:32;5.90;70.80
4584;DHT22;2304;47.606;12.186;2023-04-03T04:02:33;5.90;71.10
4584;DHT22;2304;47.606;12.186;2023-04-03T04:07:36;5.80;71.00
4584;DHT22;2304;47.606;12.186;2023-04-03T04:12:39;5.80;70.80
4584;DHT22;2304;47.606;12.186;2023-04-03T04:17:40;5.80;70.90
4584;DHT22;2304;47.606;12.186;2023-04-03T04:22:44;5.80;70.60
4584;DHT22;2304;47.606;12.186;2023-04-03T04:27:46;5.80;70.60
4584;DHT22;2304;47.606;12.186;2023-04-03T04:32:47;5.80;70.60
4584;DHT22;2304;47.606;12.186;2023-04-03T04:37:50;5.80;70.60
4584;DHT22;2304;47.606;12.186;2023-04-03T04:42:52;5.80;70.60
4584;DHT22;2304;47.606;12.186;2023-04-03T04:47:55;5.80;70.60
4584;DHT22;2304;47.606;12.186;2023-04-03T04:52:58;5.80;70.60
4584;DHT22;2304;47.606;12.186;2023-04-03T04:58:00;5.70;70.80
4584;DHT22;2304;47.606;12.186;2023-04-03T05:03:02;5.70;70.40
4584;DHT22;2304;47.606;12.186;2023-04-03T05:08:05;5.60;71.00
4584;DHT22;2304;47.606;12.186;2023-04-03T05:13:08;5.50;71.90
4584;DHT22;2304;47.606;12.186;2023-04-03T05:18:10;5.40;71.90
4584;DHT22;2304;47.606;12.186;2023-04-03T05:23:13;5.50;72.70
4584;DHT22;2304;47.606;12.186;2023-04-03T05:28:15;5.50;72.40
4584;DHT22;2304;47.606;12.186;2023-04-03T05:33:17;5.50;72.30
4584;DHT22;2304;47.606;12.186;2023-04-03T05:38:20;5.70;72.10
4584;DHT22;2304;47.606;12.186;2023-04-03T05:43:22;5.60;71.80
4584;DHT22;2304;47.606;12.186;2023-04-03T05:48:24;5.50;71.20
4584;DHT22;2304;47.606;12.186;2023-04-03T05:53:28;5.60;71.40
4584;DHT22;2304;47.606;12.186;2023-04-03T05:58:31;5.60;71.40
4584;DHT22;2304;47.606;12.186;2023-04-03T06:03:33;5.60;71.00
4584;DHT22;2304;47.606;12.186;2023-04-03T06:08:36;5.60;70.40
4584;DHT22;2304;47.606;12.186;2023-04-03T06:13:38;5.60;70.40
4584;DHT22;2304;47.606;12.186;2023-04-03T06:18:40;5.60;70.00
4584;DHT22;2304;47.606;12.186;2023-04-03T06:23:44;5.60;69.80
4584;DHT22;2304;47.606;12.186;2023-04-03T06:28:46;5.60;70.10
4584;DHT22;2304;47.606;12.186;2023-04-03T06:33:48;5.60;70.10
4584;DHT22;2304;47.606;12.186;2023-04-03T06:38:51;5.60;70.10
4584;DHT22;2304;47.606;12.186;2023-04-03T06:43:53;5.70;70.80
4584;DHT22;2304;47.606;12.186;2023-04-03T06:48:56;5.80;70.60
4584;DHT22;2304;47.606;12.186;2023-04-03T06:54:00;5.80;70.20
4584;DHT22;2304;47.606;12.186;2023-04-03T06:59:01;5.90;71.00
4584;DHT22;2304;47.606;12.186;2023-04-03T07:04:03;5.90;70.20
4584;DHT22;2304;47.606;12.186;2023-04-03T07:09:07;5.90;70.20
4584;DHT22;2304;47.606;12.186;2023-04-03T07:14:09;5.90;69.40
4584;DHT22;2304;47.606;12.186;2023-04-03T07:19:11;5.90;69.30
4584;DHT22;2304;47.606;12.186;2023-04-03T07:24:14;5.90;69.60
4584;DHT22;2304;47.606;12.186;2023-04-03T07:29:16;5.90;69.80
4584;DHT22;2304;47.606;12.186;2023-04-03T07:34:18;5.90;69.90
4584;DHT22;2304;47.606;12.186;2023-04-03T07:39:21;5.90;70.50
4584;DHT22;2304;47.606;12.186;2023-04-03T07:44:23;6.00;70.30
4584;DHT22;2304;47.606;12.186;2023-04-03T07:49:25;6.00;70.40
4584;DHT22;2304;47.606;12.186;2023-04-03T07:54:29;6.00;69.50
4584;DHT22;2304;47.606;12.186;2023-04-03T07:59:30;6.40;70.10
4584;DHT22;2304;47.606;12.186;2023-04-03T08:04:32;6.10;69.40
4584;DHT22;2304;47.606;12.186;2023-04-03T08:09:36;6.10;69.10
4584;DHT22;2304;47.606;12.186;2023-04-03T08:14:37;6.10;68.50
4584;DHT22;2304;47.606;12.186;2023-04-03T08:19:40;6.10;68.60
4584;DHT22;2304;47.606;12.186;2023-04-03T08:24:43;6.20;68.90
4584;DHT22;2304;47.606;12.186;2023-04-03T08:29:45;6.20;68.10
4584;DHT22;2304;47.606;12.186;2023-04-03T08:34:47;6.30;68.40
4584;DHT22;2304;47.606;12.186;2023-04-03T08:39:53;6.50;67.80
4584;DHT22;2304;47.606;12.186;2023-04-03T08:44:58;6.50;67.50
4584;DHT22;2304;47.606;12.186;2023-04-03T08:50:04;6.60;67.20
4584;DHT22;2304;47.606;12.186;2023-04-03T08:55:16;6.60;66.60
4584;DHT22;2304;47.606;12.186;2023-04-03T09:00:23;6.70;66.50
4584;DHT22;2304;47.606;12.186;2023-04-03T09:05:34;6.60;66.20
4584;DHT22;2304;47.606;12.186;2023-04-03T09:10:42;6.60;65.20
4584;DHT22;2304;47.606;12.186;2023-04-03T09:15:44;6.60;66.00
4584;DHT22;2304;47.606;12.186;2023-04-03T09:20:53;6.60;64.70
4584;DHT22;2304;47.606;12.186;2023-04-03T09:26:02;6.70;65.00
4584;DHT22;2304;47.606;12.186;2023-04-03T09:31:16;6.80;64.00
4584;DHT22;2304;47.606;12.186;2023-04-03T09:36:40;7.10;64.30
4584;DHT22;2304;47.606;12.186;2023-04-03T09:41:55;7.20;62.60
4584;DHT22;2304;47.606;12.186;2023-04-03T09:46:58;7.30;61.90
4584;DHT22;2304;47.606;12.186;2023-04-03T09:52:18;7.40;61.20
4584;DHT22;2304;47.606;12.186;2023-04-03T09:57:22;7.50;60.90
4584;DHT22;2304;47.606;12.186;2023-04-03T10:02:35;7.70;60.10
4584;DHT22;2304;47.606;12.186;2023-04-03T10:07:38;8.10;61.20
4584;DHT22;2304;47.606;12.186;2023-04-03T10:12:41;8.40;59.10
4584;DHT22;2304;47.606;12.186;2023-04-03T10:17:51;8.20;58.60
4584;DHT22;2304;47.606;12.186;2023-04-03T10:23:01;8.00;58.20
4584;DHT22;2304;47.606;12.186;2023-04-03T10:28:09;7.80;58.60
4584;DHT22;2304;47.606;12.186;2023-04-03T10:33:23;7.70;57.80
4584;DHT22;2304;47.606;12.186;2023-04-03T10:38:33;7.80;58.40
4584;DHT22;2304;47.606;12.186;2023-04-03T10:43:43;7.70;57.30
4584;DHT22;2304;47.606;12.186;2023-04-03T10:48:56;7.70;57.70
4584;DHT22;2304;47.606;12.186;2023-04-03T10:54:05;7.70;57.60
4584;DHT22;2304;47.606;12.186;2023-04-03T10:59:21;7.80;57.60
4584;DHT22;2304;47.606;12.186;2023-04-03T11:04:27;7.70;56.90
4584;DHT22;2304;47.606;12.186;2023-04-03T11:09:32;7.60;56.20
4584;DHT22;2304;47.606;12.186;2023-04-03T11:14:37;7.60;55.70
4584;DHT22;2304;47.606;12.186;2023-04-03T11:19:44;7.60;56.90
4584;DHT22;2304;47.606;12.186;2023-04-03T11:24:55;7.70;56.80
4584;DHT22;2304;47.606;12.186;2023-04-03T11:30:00;7.60;54.90
4584;DHT22;2304;47.606;12.186;2023-04-03T11:35:05;7.60;55.70
4584;DHT22;2304;47.606;12.186;2023-04-03T11:40:21;7.60;55.80
4584;DHT22;2304;47.606;12.186;2023-04-03T11:45:37;7.60;54.90
4584;DHT22;2304;47.606;12.186;2023-04-03T11:50:44;7.70;56.00
4584;DHT22;2304;47.606;12.186;2023-04-03T11:55:55;7.50;55.80
4584;DHT22;2304;47.606;12.186;2023-04-03T12:01:06;7.50;56.50
4584;DHT22;2304;47.606;12.186;2023-04-03T12:11:47;7.30;57.00
4584;DHT22;2304;47.606;12.186;2023-04-03T12:16:52;7.30;57.40
4584;DHT22;2304;47.606;12.186;2023-04-03T12:22:07;7.30;57.00
4584;DHT22;2304;47.606;12.186;2023-04-03T12:27:27;7.30;56.80
4584;DHT22;2304;47.606;12.186;2023-04-03T12:32:41;7.30;56.10
4584;DHT22;2304;47.606;12.186;2023-04-03T12:43:43;7.40;56.40
4584;DHT22;2304;47.606;12.186;2023-04-03T12:48:52;7.50;56.60
4584;DHT22;2304;47.606;12.186;2023-04-03T12:54:00;7.40;56.90
4584;DHT22;2304;47.606;12.186;2023-04-03T12:59:18;7.20;54.80
4584;DHT22;2304;47.606;12.186;2023-04-03T13:04:21;7.10;54.40
4584;DHT22;2304;47.606;12.186;2023-04-03T13:09:26;7.00;54.90
4584;DHT22;2304;47.606;12.186;2023-04-03T13:14:29;6.90;54.50
4584;DHT22;2304;47.606;12.186;2023-04-03T13:19:32;6.90;55.10
4584;DHT22;2304;47.606;12.186;2023-04-03T13:24:36;6.80;55.00
4584;DHT22;2304;47.606;12.186;2023-04-03T13:29:39;6.80;55.80
4584;DHT22;2304;47.606;12.186;2023-04-03T13:34:43;6.80;55.40
4584;DHT22;2304;47.606;12.186;2023-04-03T13:39:45;6.70;55.10
4584;DHT22;2304;47.606;12.186;2023-04-03T13:44:47;6.80;55.20
4584;DHT22;2304;47.606;12.186;2023-04-03T13:50:02;6.70;55.00
4584;DHT22;2304;47.606;12.186;2023-04-03T13:55:19;6.80;54.50
4584;DHT22;2304;47.606;12.186;2023-04-03T14:00:28;6.90;55.00
4584;DHT22;2304;47.606;12.186;2023-04-03T14:05:32;7.00;54.90
4584;DHT22;2304;47.606;12.186;2023-04-03T14:10:34;7.10;55.10
4584;DHT22;2304;47.606;12.186;2023-04-03T14:15:36;7.20;55.20
4584;DHT22;2304;47.606;12.186;2023-04-03T14:20:39;7.20;54.40
4584;DHT22;2304;47.606;12.186;2023-04-03T14:25:42;7.20;54.50
4584;DHT22;2304;47.606;12.186;2023-04-03T14:30:45;7.40;55.00
4584;DHT22;2304;47.606;12.186;2023-04-03T14:35:51;7.40;54.90
4584;DHT22;2304;47.606;12.186;2023-04-03T14:40:53;7.40;54.60
4584;DHT22;2304;47.606;12.186;2023-04-03T14:45:55;7.40;54.80
4584;DHT22;2304;47.606;12.186;2023-04-03T14:50:59;7.30;54.30
4584;DHT22;2304;47.606;12.186;2023-04-03T14:56:00;7.30;54.30
4584;DHT22;2304;47.606;12.186;2023-04-03T15:01:02;7.40;54.80
4584;DHT22;2304;47.606;12.186;2023-04-03T15:06:08;7.30;55.00
4584;DHT22;2304;47.606;12.186;2023-04-03T15:11:10;7.30;55.40
4584;DHT22;2304;47.606;12.186;2023-04-03T15:16:15;7.20;55.90
4584;DHT22;2304;47.606;12.186;2023-04-03T15:21:19;7.40;56.00
4584;DHT22;2304;47.606;12.186;2023-04-03T15:26:21;7.20;56.20
4584;DHT22;2304;47.606;12.186;2023-04-03T15:31:22;7.20;56.30
4584;DHT22;2304;47.606;12.186;2023-04-03T15:36:26;7.30;55.40
4584;DHT22;2304;47.606;12.186;2023-04-03T15:41:28;7.40;55.30
4584;DHT22;2304;47.606;12.186;2023-04-03T15:46:29;7.40;54.70
4584;DHT22;2304;47.606;12.186;2023-04-03T15:51:33;7.40;54.20
4584;DHT22;2304;47.606;12.186;2023-04-03T15:56:34;7.40;53.50
4584;DHT22;2304;47.606;12.186;2023-04-03T16:01:36;7.40;53.80
4584;DHT22;2304;47.606;12.186;2023-04-03T16:06:41;7.40;54.10
4584;DHT22;2304;47.606;12.186;2023-04-03T16:11:43;7.30;53.70
4584;DHT22;2304;47.606;12.186;2023-04-03T16:16:44;7.20;53.90
4584;DHT22;2304;47.606;12.186;2023-04-03T16:21:49;7.10;55.00
4584;DHT22;2304;47.606;12.186;2023-04-03T16:26:50;7.00;54.80
4584;DHT22;2304;47.606;12.186;2023-04-03T16:31:53;6.90;55.90
4584;DHT22;2304;47.606;12.186;2023-04-03T16:36:57;6.80;55.50
4584;DHT22;2304;47.606;12.186;2023-04-03T16:42:01;6.80;55.70
4584;DHT22;2304;47.606;12.186;2023-04-03T16:47:03;6.90;56.30
4584;DHT22;2304;47.606;12.186;2023-04-03T16:52:06;6.80;56.20
4584;DHT22;2304;47.606;12.186;2023-04-03T16:57:08;6.80;56.20
4584;DHT22;2304;47.606;12.186;2023-04-03T17:02:10;6.80;56.10
4584;DHT22;2304;47.606;12.186;2023-04-03T17:07:13;6.80;55.70
4584;DHT22;2304;47.606;12.186;2023-04-03T17:12:15;6.90;55.90
4584;DHT22;2304;47.606;12.186;2023-04-03T17:17:21;6.90;55.90
4584;DHT22;2304;47.606;12.186;2023-04-03T17:22:24;6.90;56.10
4584;DHT22;2304;47.606;12.186;2023-04-03T17:27:26;6.80;56.00
4584;DHT22;2304;47.606;12.186;2023-04-03T17:32:28;6.80;56.40
4584;DHT22;2304;47.606;12.186;2023-04-03T17:37:31;6.70;55.80
4584;DHT22;2304;47.606;12.186;2023-04-03T17:42:33;6.70;56.10
4584;DHT22;2304;47.606;12.186;2023-04-03T17:47:35;6.70;56.40
4584;DHT22;2304;47.606;12.186;2023-04-03T17:52:38;6.60;56.40
4584;DHT22;2304;47.606;12.186;2023-04-03T17:57:40;6.50;55.50
4584;DHT22;2304;47.606;12.186;2023-04-03T18:02:42;6.50;55.40
4584;DHT22;2304;47.606;12.186;2023-04-03T18:07:45;6.40;54.80
4584;DHT22;2304;47.606;12.186;2023-04-03T18:12:47;6.40;55.10
4584;DHT22;2304;47.606;12.186;2023-04-03T18:17:49;6.40;54.40
4584;DHT22;2304;47.606;12.186;2023-04-03T18:22:58;6.30;54.40
4584;DHT22;2304;47.606;12.186;2023-04-03T18:28:00;6.40;55.20
4584;DHT22;2304;47.606;12.186;2023-04-03T18:33:05;6.40;54.00
4584;DHT22;2304;47.606;12.186;2023-04-03T18:38:08;6.50;53.60
4584;DHT22;2304;47.606;12.186;2023-04-03T18:43:11;6.30;52.90
4584;DHT22;2304;47.606;12.186;2023-04-03T18:48:12;6.30;53.20
4584;DHT22;2304;47.606;12.186;2023-04-03T18:53:16;6.30;53.10
4584;DHT22;2304;47.606;12.186;2023-04-03T18:58:18;6.20;52.70
4584;DHT22;2304;47.606;12.186;2023-04-03T19:03:19;6.20;53.10
4584;DHT22;2304;47.606;12.186;2023-04-03T19:08:23;6.20;53.20
4584;DHT22;2304;47.606;12.186;2023-04-03T19:13:25;6.20;53.50
4584;DHT22;2304;47.606;12.186;2023-04-03T19:18:28;6.20;54.00
4584;DHT22;2304;47.606;12.186;2023-04-03T19:23:31;6.10;54.10
4584;DHT22;2304;47.606;12.186;2023-04-03T19:28:34;6.00;54.40
4584;DHT22;2304;47.606;12.186;2023-04-03T19:33:36;6.00;53.90
4584;DHT22;2304;47.606;12.186;2023-04-03T19:38:42;5.90;53.40
4584;DHT22;2304;47.606;12.186;2023-04-03T19:43:44;5.80;53.20
4584;DHT22;2304;47.606;12.186;2023-04-03T19:48:46;5.70;53.30
4584;DHT22;2304;47.606;12.186;2023-04-03T19:53:49;5.50;53.20
4584;DHT22;2304;47.606;12.186;2023-04-03T19:58:51;5.30;53.20
4584;DHT22;2304;47.606;12.186;2023-04-03T20:03:54;5.20;52.70
4584;DHT22;2304;47.606;12.186;2023-04-03T20:08:57;5.20;52.60
4584;DHT22;2304;47.606;12.186;2023-04-03T20:13:59;5.00;51.40
4584;DHT22;2304;47.606;12.186;2023-04-03T20:19:01;5.00;50.40
4584;DHT22;2304;47.606;12.186;2023-04-03T20:24:07;5.00;50.90
4584;DHT22;2304;47.606;12.186;2023-04-03T20:29:09;5.00;50.60
4584;DHT22;2304;47.606;12.186;2023-04-03T20:34:11;5.10;50.30
4584;DHT22;2304;47.606;12.186;2023-04-03T20:39:14;5.00;50.20
4584;DHT22;2304;47.606;12.186;2023-04-03T20:44:16;5.10;50.80
4584;DHT22;2304;47.606;12.186;2023-04-03T20:49:21;5.10;50.50
4584;DHT22;2304;47.606;12.186;2023-04-03T20:54:25;5.00;50.40
4584;DHT22;2304;47.606;12.186;2023-04-03T20:59:27;5.00;50.50
4584;DHT22;2304;47.606;12.186;2023-04-03T21:04:35;4.80;50.50
4584;DHT22;2304;47.606;12.186;2023-04-03T21:20:55;4.70;50.80
4584;DHT22;2304;47.606;12.186;2023-04-03T21:25:59;4.60;50.80
4584;DHT22;2304;47.606;12.186;2023-04-03T21:31:01;4.50;51.30
4584;DHT22;2304;47.606;12.186;2023-04-03T21:36:04;4.60;51.50
4584;DHT22;2304;47.606;12.186;2023-04-03T21:41:06;4.60;51.10
4584;DHT22;2304;47.606;12.186;2023-04-03T21:46:08;4.60;51.10
4584;DHT22;2304;47.606;12.186;2023-04-03T21:51:11;4.50;51.30
4584;DHT22;2304;47.606;12.186;2023-04-03T21:56:12;4.50;51.30
4584;DHT22;2304;47.606;12.186;2023-04-03T22:01:15;4.40;52.00
4584;DHT22;2304;47.606;12.186;2023-04-03T22:06:18;4.50;52.60
4584;DHT22;2304;47.606;12.186;2023-04-03T22:11:20;4.50;52.80
4584;DHT22;2304;47.606;12.186;2023-04-03T22:16:24;4.30;52.60
4584;DHT22;2304;47.606;12.186;2023-04-03T22:21:27;4.20;52.90
4584;DHT22;2304;47.606;12.186;2023-04-03T22:26:29;4.20;53.20
4584;DHT22;2304;47.606;12.186;2023-04-03T22:31:31;4.30;53.20
4584;DHT22;2304;47.606;12.186;2023-04-03T22:36:34;4.30;52.90
4584;DHT22;2304;47.606;12.186;2023-04-03T22:41:36;4.30;53.30
4584;DHT22;2304;47.606;12.186;2023-04-03T22:46:38;4.30;53.40
4584;DHT22;2304;47.606;12.186;2023-04-03T22:51:41;4.30;53.40
4584;DHT22;2304;47.606;12.186;2023-04-03T22:56:43;4.20;53.30
4584;DHT22;2304;47.606;12.186;2023-04-03T23:01:44;4.20;53.60
4584;DHT22;2304;47.606;12.186;2023-04-03T23:06:47;4.20;53.90
4584;DHT22;2304;47.606;12.186;2023-04-03T23:11:49;4.20;53.80
4584;DHT22;2304;47.606;12.186;2023-04-03T23:16:51;4.10;53.60
4584;DHT22;2304;47.606;12.186;2023-04-03T23:21:54;4.20;54.20
4584;DHT22;2304;47.606;12.186;2023-04-03T23:26:56;4.10;53.90
4584;DHT22;2304;47.606;12.186;2023-04-03T23:31:58;4.10;54.00
4584;DHT22;2304;47.606;12.186;2023-04-03T23:37:01;4.10;54.00
4584;DHT22;2304;47.606;12.186;2023-04-03T23:42:03;4.10;54.10
4584;DHT22;2304;47.606;12.186;2023-04-03T23:47:08;4.10;54.30
4584;DHT22;2304;47.606;12.186;2023-04-03T23:52:11;4.10;54.30
4584;DHT22;2304;47.606;12.186;2023-04-03T23:57:13;4.10;54.20
